メインページ
METAR-TAF:

METAR-TAF

空港 :

マニラ, フィリピン

ニノイ・アキノ国際空港

緯度: 14-31N, 経度: 121-00E, 海抜: 14m

現時点の気象観測

当レポートは39分前の23:00(UTC)に作成
東/南東の風 6kt、からの間で変化する
気温 28°C
湿度 89%
気圧 1011 hPa
視程10km以上
高度2500ftの雲はほとんどない
高度30000ftの雲は散在している

METAR: RPLL 232300Z 12006KT 080V170 9999 FEW025 SCT300 28/26 Q1011 NOSIG RMK A2985

時間: 07:39 (23:39 UTC)

予報

当レポートは6時間39分前の17:00(UTC)に作成
予報は23日の 18時(UTC)から 24日の 24時(UTC)まで有効
南東の風 6kt
視程10km以上
高度2500ftの雲はほとんどない
高度10000ftの雲は散在している
23日の 18時(UTC)から 23日の 23時(UTC)まで一時的に
変向風 2kt
高度2300ftの雲はほとんどない
高度30000ftの雲は散在している
24日の 06時(UTC)から 日の 時(UTC)まで一時的に
南/南東の風 9kt
視程: 2411m
高度2300ftの雲はほとんどない, 積乱雲.
高度2500ftの雲はほとんどない
高度30000ftの千切れ雲あり

TAF: RPLL 231700Z 2318/2424 14006KT 9999 FEW025 SCT100 TX33/2406Z TN26/2321Z TEMPO 2318/2323 VRB02KT FEW023 SCT300 TEMPO 2406/ 2411 16009KT FEW023CB FEW025 BKN300

4,000以上の空港の気象観測と天気予報(METAR報とTAF報)

利用可能な観測所は地図上に黄色い丸と赤い丸で示す。

丸の上にカーソルを重ねると観測所名を参照できる。

次にクリックすると気象観測と天気予報を参照できる。

マップの切り替え:黒色「×」印の緑ボタンをクリックして拡大、「-」印の緑ボタンをクリックして縮小、緑色の三角印をクリックして隣りの地図に切り替え


METAR-TAF: